createdAt,value
2019-05-19T00:00:14.161Z,12.65
2019-05-19T00:02:43.580Z,12.07
2019-05-19T00:05:13.220Z,13.55
2019-05-19T00:07:42.629Z,15.20
2019-05-19T00:10:12.087Z,13.88
2019-05-19T00:12:41.919Z,12.00
2019-05-19T00:15:11.467Z,11.48
2019-05-19T00:17:41.385Z,11.17
2019-05-19T00:20:11.329Z,13.85
2019-05-19T00:22:40.811Z,11.73
2019-05-19T00:25:10.334Z,12.58
2019-05-19T00:27:40.231Z,16.27
2019-05-19T00:30:10.269Z,13.93
2019-05-19T00:32:39.727Z,13.85
2019-05-19T00:35:09.697Z,13.62
2019-05-19T00:37:39.135Z,14.30
2019-05-19T00:40:08.913Z,13.32
2019-05-19T00:42:38.368Z,13.90
2019-05-19T00:45:08.498Z,12.70
2019-05-19T00:47:37.922Z,13.25
2019-05-19T00:50:08.840Z,13.85
2019-05-19T00:52:38.305Z,14.45
2019-05-19T00:55:07.722Z,13.68
2019-05-19T00:57:38.077Z,16.00
2019-05-19T01:00:08.234Z,13.00
2019-05-19T01:02:38.036Z,14.78
2019-05-19T01:05:08.147Z,16.12
2019-05-19T01:07:37.658Z,12.90
2019-05-19T01:10:07.707Z,14.20
2019-05-19T01:12:37.121Z,13.43
2019-05-19T01:15:09.110Z,14.73
2019-05-19T01:17:38.540Z,15.00
2019-05-19T01:20:09.570Z,13.72
2019-05-19T01:22:39.522Z,15.32
2019-05-19T01:25:09.793Z,14.00
2019-05-19T01:27:39.210Z,14.63
2019-05-19T01:30:10.013Z,18.60
2019-05-19T01:32:39.620Z,17.35
2019-05-19T01:35:09.581Z,15.35
2019-05-19T01:37:39.068Z,17.50
2019-05-19T01:40:09.865Z,19.73
2019-05-19T01:42:39.349Z,15.60
2019-05-19T01:45:10.308Z,16.20
2019-05-19T01:47:39.735Z,14.58
2019-05-19T01:50:18.481Z,16.63
2019-05-19T01:52:41.224Z,18.05
2019-05-19T01:55:12.201Z,14.10
2019-05-19T01:57:41.672Z,15.23
2019-05-19T02:00:11.669Z,13.58
2019-05-19T02:02:41.129Z,17.32
2019-05-19T02:05:10.985Z,15.28
2019-05-19T02:07:40.437Z,13.40
2019-05-19T02:10:10.709Z,19.17
2019-05-19T02:12:40.315Z,14.93
2019-05-19T02:15:10.167Z,16.70
2019-05-19T02:17:39.853Z,15.38
2019-05-19T02:20:10.530Z,17.02
2019-05-19T02:22:40.582Z,16.93
2019-05-19T02:25:11.021Z,19.93
2019-05-19T02:27:40.687Z,15.98
2019-05-19T02:30:11.040Z,19.12
2019-05-19T02:32:40.530Z,19.67
2019-05-19T02:35:10.451Z,17.60
2019-05-19T02:37:39.881Z,18.45
2019-05-19T02:40:09.825Z,17.77
2019-05-19T02:42:41.928Z,18.75
2019-05-19T02:45:12.065Z,20.02
2019-05-19T02:47:43.740Z,22.65
2019-05-19T02:50:16.667Z,23.55
2019-05-19T02:52:48.728Z,20.75
2019-05-19T02:55:18.970Z,24.27
2019-05-19T02:57:50.849Z,22.40
2019-05-19T03:00:24.872Z,18.07
2019-05-19T03:02:54.310Z,21.48
2019-05-19T03:05:23.749Z,19.73
2019-05-19T03:07:53.235Z,20.00
2019-05-19T03:10:22.732Z,18.62
2019-05-19T03:12:52.224Z,18.62
2019-05-19T03:15:21.632Z,18.37
2019-05-19T03:17:51.090Z,19.82
2019-05-19T03:20:20.620Z,20.30
2019-05-19T03:22:50.152Z,19.00
2019-05-19T03:25:19.651Z,18.02
2019-05-19T03:27:49.248Z,20.62
2019-05-19T03:30:47.735Z,19.37
2019-05-19T03:33:20.038Z,21.02
2019-05-19T03:35:49.537Z,22.48
2019-05-19T03:38:19.370Z,22.67
2019-05-19T03:40:48.845Z,21.73
2019-05-19T03:43:18.265Z,23.40
2019-05-19T03:45:48.022Z,21.48
2019-05-19T03:48:17.465Z,20.23
2019-05-19T03:50:46.924Z,21.77
2019-05-19T03:53:16.732Z,23.83
2019-05-19T03:55:46.183Z,18.52
2019-05-19T03:58:16.129Z,19.52
2019-05-19T04:00:45.652Z,23.60
2019-05-19T04:03:15.251Z,21.42
2019-05-19T04:05:44.892Z,21.90
2019-05-19T04:08:14.547Z,18.17
2019-05-19T04:10:44.025Z,22.33
2019-05-19T04:13:13.519Z,19.75
2019-05-19T04:15:42.956Z,20.70
2019-05-19T04:18:12.989Z,20.50
2019-05-19T04:20:42.574Z,20.03
2019-05-19T04:23:12.204Z,20.35
2019-05-19T04:25:41.636Z,21.30
2019-05-19T04:28:11.103Z,20.43
2019-05-19T04:30:40.816Z,19.17
2019-05-19T04:33:10.343Z,20.25
2019-05-19T04:35:39.846Z,19.52
2019-05-19T04:38:09.423Z,20.37
2019-05-19T04:40:38.805Z,19.75
2019-05-19T04:43:08.285Z,18.65
2019-05-19T04:45:38.024Z,19.90
2019-05-19T04:48:09.683Z,18.60
2019-05-19T04:50:38.668Z,16.35
2019-05-19T04:53:08.174Z,17.55
2019-05-19T04:55:37.817Z,16.85
2019-05-19T04:58:07.272Z,17.62
2019-05-19T05:00:36.738Z,16.80
2019-05-19T05:03:06.272Z,17.05
2019-05-19T05:05:35.880Z,16.97
2019-05-19T05:08:05.309Z,19.07
2019-05-19T05:10:35.063Z,17.27
2019-05-19T05:13:04.598Z,18.57
2019-05-19T05:15:33.995Z,19.52
2019-05-19T05:18:03.895Z,16.87
2019-05-19T05:20:33.359Z,15.48
2019-05-19T05:23:03.264Z,15.88
2019-05-19T05:25:32.757Z,16.35
2019-05-19T05:28:02.245Z,20.00
2019-05-19T05:30:31.825Z,16.67
2019-05-19T05:33:01.266Z,17.62
2019-05-19T05:35:30.755Z,17.00
2019-05-19T05:38:00.276Z,14.33
2019-05-19T05:40:29.776Z,13.78
2019-05-19T05:42:59.247Z,17.42
2019-05-19T05:45:28.704Z,13.03
2019-05-19T05:47:58.365Z,15.30
2019-05-19T05:50:27.833Z,16.30
2019-05-19T05:52:57.252Z,15.10
2019-05-19T05:55:26.945Z,11.80
2019-05-19T05:57:56.390Z,12.75
2019-05-19T06:00:25.885Z,14.60
2019-05-19T06:03:08.326Z,11.97
2019-05-19T06:05:37.766Z,14.40
2019-05-19T06:08:07.264Z,12.78
2019-05-19T06:10:36.877Z,9.97
2019-05-19T06:13:06.342Z,12.58
2019-05-19T06:15:35.830Z,11.40
2019-05-19T06:18:05.713Z,12.27
2019-05-19T06:20:35.194Z,11.65
2019-05-19T06:23:04.632Z,10.43
2019-05-19T06:25:34.189Z,13.83
2019-05-19T06:28:03.566Z,14.28
2019-05-19T06:30:33.117Z,15.43
2019-05-19T06:33:03.726Z,11.78
2019-05-19T06:35:33.205Z,10.10
2019-05-19T06:38:03.093Z,11.63
2019-05-19T06:40:32.718Z,10.90
2019-05-19T06:43:02.179Z,9.85
2019-05-19T06:45:32.088Z,11.90
2019-05-19T06:48:04.788Z,12.73
2019-05-19T06:50:34.457Z,15.30
2019-05-19T06:53:13.575Z,13.38
2019-05-19T06:55:35.028Z,10.78
2019-05-19T06:58:04.721Z,11.03
2019-05-19T07:00:34.299Z,12.80
2019-05-19T07:03:03.718Z,11.10
2019-05-19T07:05:33.368Z,12.53
2019-05-19T07:08:02.817Z,11.17
2019-05-19T07:10:32.273Z,11.70
2019-05-19T07:13:01.913Z,9.90
2019-05-19T07:15:31.366Z,11.10
2019-05-19T07:18:00.912Z,11.12
2019-05-19T07:20:30.833Z,10.35
2019-05-19T07:23:00.285Z,11.22
2019-05-19T07:25:29.921Z,9.88
2019-05-19T07:27:59.409Z,11.35
2019-05-19T07:30:28.887Z,10.25
2019-05-19T07:32:58.856Z,8.85
2019-05-19T07:35:28.342Z,11.25
2019-05-19T07:37:57.827Z,10.68
2019-05-19T07:40:27.468Z,8.73
2019-05-19T07:42:56.897Z,10.30
2019-05-19T07:45:26.801Z,8.83
2019-05-19T07:47:56.283Z,13.45
2019-05-19T07:50:26.097Z,14.58
2019-05-19T07:52:55.606Z,8.77
2019-05-19T07:55:25.025Z,8.40
2019-05-19T07:57:54.486Z,11.05
2019-05-19T08:00:24.018Z,11.57
2019-05-19T08:02:53.454Z,9.58
2019-05-19T08:05:22.988Z,9.58
2019-05-19T08:07:52.898Z,7.47
2019-05-19T08:10:22.301Z,9.60
2019-05-19T08:12:51.744Z,9.05
2019-05-19T08:15:21.390Z,10.90
2019-05-19T08:17:50.831Z,9.47
2019-05-19T08:20:20.244Z,11.55
2019-05-19T08:22:51.378Z,9.75
2019-05-19T08:25:21.110Z,8.80
2019-05-19T08:27:50.594Z,7.28
2019-05-19T08:30:21.071Z,10.93
2019-05-19T08:32:50.907Z,9.25
2019-05-19T08:35:20.347Z,10.70
2019-05-19T08:37:50.015Z,9.40
2019-05-19T08:40:19.475Z,8.95
2019-05-19T08:42:49.019Z,10.85
2019-05-19T08:45:18.801Z,10.18
2019-05-19T08:47:48.307Z,9.25
2019-05-19T08:50:19.076Z,9.47
2019-05-19T08:52:48.552Z,8.80
2019-05-19T08:55:18.150Z,8.73
2019-05-19T08:57:48.356Z,10.53
2019-05-19T09:00:18.023Z,9.18
2019-05-19T09:02:47.488Z,14.63
2019-05-19T09:05:17.166Z,10.28
2019-05-19T09:07:46.629Z,9.55
2019-05-19T09:10:16.106Z,9.85
2019-05-19T09:12:45.597Z,10.28
2019-05-19T09:15:15.653Z,8.63
2019-05-19T09:17:45.168Z,10.95
2019-05-19T09:20:14.808Z,11.03
2019-05-19T09:22:44.336Z,8.88
2019-05-19T09:25:14.228Z,10.20
2019-05-19T09:27:43.756Z,8.63
2019-05-19T09:30:14.035Z,7.30
2019-05-19T09:32:44.195Z,8.27
2019-05-19T09:35:14.161Z,9.13
2019-05-19T09:37:43.613Z,8.25
2019-05-19T09:40:13.622Z,6.87
2019-05-19T09:42:43.101Z,8.03
2019-05-19T09:45:13.006Z,8.57
2019-05-19T09:47:42.823Z,9.75
2019-05-19T09:50:13.744Z,7.35
2019-05-19T09:52:43.308Z,8.00
2019-05-19T09:55:12.949Z,11.33
2019-05-19T09:57:42.442Z,8.35
2019-05-19T10:00:12.634Z,8.48
2019-05-19T10:02:42.218Z,44.10
2019-05-19T10:05:11.988Z,8.07
2019-05-19T10:07:41.675Z,8.13
2019-05-19T10:10:18.603Z,7.62
2019-05-19T10:12:48.082Z,6.92
2019-05-19T10:15:17.643Z,9.95
2019-05-19T10:17:47.320Z,7.60
2019-05-19T10:20:18.108Z,8.10
2019-05-19T10:22:47.597Z,6.53
2019-05-19T10:25:22.604Z,10.67
2019-05-19T10:27:48.387Z,7.55
2019-05-19T10:30:18.479Z,8.97
2019-05-19T10:32:47.964Z,9.40
2019-05-19T10:35:18.398Z,6.15
2019-05-19T10:37:50.951Z,8.15
2019-05-19T10:40:20.458Z,9.38
2019-05-19T10:42:50.280Z,5.60
2019-05-19T10:45:20.015Z,10.53
2019-05-19T10:47:49.508Z,5.85
2019-05-19T10:50:19.001Z,8.48
2019-05-19T10:52:48.515Z,5.47
2019-05-19T10:55:18.607Z,7.67
2019-05-19T10:57:48.332Z,7.47
2019-05-19T11:00:18.058Z,10.60
2019-05-19T11:02:47.935Z,6.30
2019-05-19T11:05:17.420Z,5.00
2019-05-19T11:07:46.973Z,6.25
2019-05-19T11:10:16.634Z,4.80
2019-05-19T11:12:47.019Z,6.17
2019-05-19T11:15:16.849Z,4.30
2019-05-19T11:17:46.296Z,4.67
2019-05-19T11:20:15.928Z,4.40
2019-05-19T11:22:45.332Z,6.97
2019-05-19T11:25:14.890Z,4.30
2019-05-19T11:27:44.316Z,4.37
2019-05-19T11:30:13.912Z,11.63
2019-05-19T11:32:43.383Z,5.78
2019-05-19T11:35:12.978Z,5.42
2019-05-19T11:37:42.425Z,6.60
2019-05-19T11:40:12.180Z,6.62
2019-05-19T11:42:41.789Z,8.23
2019-05-19T11:45:11.496Z,8.53
2019-05-19T11:47:40.958Z,4.40
2019-05-19T11:50:10.550Z,6.08
2019-05-19T11:52:40.103Z,7.20
2019-05-19T11:55:09.650Z,4.62
2019-05-19T11:57:39.079Z,8.97
2019-05-19T12:00:09.341Z,7.90
2019-05-19T12:02:38.711Z,6.67
2019-05-19T12:05:08.868Z,8.95
2019-05-19T12:07:38.349Z,8.78
2019-05-19T12:10:07.990Z,7.67
2019-05-19T12:12:37.772Z,6.17
2019-05-19T12:15:08.897Z,7.03
2019-05-19T12:17:38.371Z,6.35
2019-05-19T12:20:08.131Z,6.47
2019-05-19T12:22:37.578Z,7.83
2019-05-19T12:25:07.418Z,6.05
2019-05-19T12:27:37.004Z,6.75
2019-05-19T12:30:07.369Z,5.28
2019-05-19T12:32:36.858Z,5.80
2019-05-19T12:35:06.607Z,6.15
2019-05-19T12:37:36.169Z,8.70
2019-05-19T12:40:05.763Z,9.23
2019-05-19T12:42:35.180Z,7.90
2019-05-19T12:45:04.722Z,10.05
2019-05-19T12:47:35.530Z,5.65
2019-05-19T12:50:05.957Z,6.60
2019-05-19T12:52:35.392Z,6.87
2019-05-19T12:55:05.296Z,4.67
2019-05-19T12:57:34.817Z,5.80
2019-05-19T13:00:04.362Z,6.53
2019-05-19T13:02:33.871Z,6.80
2019-05-19T13:05:05.615Z,4.75
2019-05-19T13:07:34.563Z,6.37
2019-05-19T13:10:04.296Z,4.80
2019-05-19T13:12:33.722Z,5.10
2019-05-19T13:15:03.144Z,7.33
2019-05-19T13:17:32.630Z,6.87
2019-05-19T13:20:02.237Z,5.92
2019-05-19T13:22:31.951Z,8.75
2019-05-19T13:25:01.388Z,5.37
2019-05-19T13:27:30.824Z,8.73
2019-05-19T13:30:09.887Z,5.44
2019-05-19T13:32:39.295Z,7.22
2019-05-19T13:35:09.556Z,5.22
2019-05-19T13:37:38.962Z,7.03
2019-05-19T13:40:08.631Z,7.25
2019-05-19T13:42:38.059Z,5.65
2019-05-19T13:45:08.050Z,5.95
2019-05-19T13:47:37.487Z,7.33
2019-05-19T13:50:07.813Z,8.80
2019-05-19T13:52:37.197Z,7.12
2019-05-19T13:55:07.053Z,5.70
2019-05-19T13:57:36.503Z,6.90
2019-05-19T14:00:06.450Z,6.60
2019-05-19T14:02:35.918Z,5.92
2019-05-19T14:05:05.912Z,5.87
2019-05-19T14:07:35.345Z,6.67
2019-05-19T14:10:06.454Z,7.70
2019-05-19T14:12:36.117Z,7.10
2019-05-19T14:15:05.794Z,5.92
2019-05-19T14:17:35.299Z,6.85
2019-05-19T14:20:04.874Z,7.83
2019-05-19T14:22:34.441Z,6.75
2019-05-19T14:25:03.984Z,6.90
2019-05-19T14:27:33.520Z,6.90
2019-05-19T14:30:03.178Z,6.75
2019-05-19T14:32:32.645Z,7.95
2019-05-19T14:35:02.571Z,9.30
2019-05-19T14:37:32.047Z,7.42
2019-05-19T14:40:01.490Z,7.95
2019-05-19T14:42:52.986Z,6.47
2019-05-19T14:45:22.583Z,8.30
2019-05-19T14:47:52.100Z,7.10
2019-05-19T14:50:22.277Z,11.40
2019-05-19T14:52:51.659Z,13.00
2019-05-19T14:55:21.147Z,9.25
2019-05-19T14:57:50.577Z,6.33
2019-05-19T15:00:22.382Z,9.00
2019-05-19T15:02:51.785Z,6.93
2019-05-19T15:05:21.217Z,7.97
2019-05-19T15:07:50.671Z,5.17
2019-05-19T15:10:20.314Z,6.28
2019-05-19T15:12:49.776Z,6.42
2019-05-19T15:15:19.910Z,6.87
2019-05-19T15:17:49.451Z,7.95
2019-05-19T15:20:19.741Z,8.37
2019-05-19T15:22:49.276Z,5.40
2019-05-19T15:25:18.817Z,5.00
2019-05-19T15:27:59.794Z,8.18
2019-05-19T15:30:19.647Z,7.17
2019-05-19T15:32:49.087Z,5.37
2019-05-19T15:35:18.631Z,5.80
2019-05-19T15:37:48.088Z,7.15
2019-05-19T15:40:17.552Z,4.78
2019-05-19T15:42:47.140Z,7.28
2019-05-19T15:45:16.749Z,5.92
2019-05-19T15:47:46.443Z,5.25
2019-05-19T15:50:17.578Z,5.50
2019-05-19T15:52:46.972Z,7.63
2019-05-19T15:55:16.464Z,7.03
2019-05-19T15:57:46.314Z,6.75
2019-05-19T16:00:15.924Z,8.65
2019-05-19T16:02:45.378Z,8.70
2019-05-19T16:05:14.931Z,9.73
2019-05-19T16:07:44.382Z,6.40
2019-05-19T16:10:14.690Z,6.55
2019-05-19T16:12:44.159Z,9.40
2019-05-19T16:15:14.227Z,7.92
2019-05-19T16:17:43.674Z,5.83
2019-05-19T16:20:13.080Z,5.50
2019-05-19T16:22:42.540Z,7.25
2019-05-19T16:25:12.492Z,9.73
2019-05-19T16:27:41.898Z,8.10
2019-05-19T16:30:11.738Z,5.70
2019-05-19T16:32:41.243Z,5.60
2019-05-19T16:35:10.755Z,6.42
2019-05-19T16:37:40.237Z,6.30
2019-05-19T16:40:10.582Z,6.75
2019-05-19T16:42:39.995Z,8.23
2019-05-19T16:45:10.133Z,6.83
2019-05-19T16:47:39.561Z,5.75
2019-05-19T16:50:09.290Z,5.83
2019-05-19T16:52:39.407Z,8.05
2019-05-19T16:55:29.422Z,9.58
2019-05-19T16:57:58.836Z,5.80
2019-05-19T17:00:29.352Z,5.85
2019-05-19T17:02:58.759Z,9.93
2019-05-19T17:05:28.306Z,9.35
2019-05-19T17:07:57.829Z,13.70
2019-05-19T17:10:27.337Z,8.55
2019-05-19T17:12:56.777Z,7.30
2019-05-19T17:15:26.284Z,6.80
2019-05-19T17:17:55.735Z,6.28
2019-05-19T17:20:25.213Z,7.97
2019-05-19T17:22:54.685Z,7.37
2019-05-19T17:25:24.134Z,7.30
2019-05-19T17:27:53.636Z,6.37
2019-05-19T17:30:23.283Z,5.97
2019-05-19T17:32:52.784Z,7.70
2019-05-19T17:35:22.387Z,9.60
2019-05-19T17:37:51.860Z,7.58
2019-05-19T17:40:22.015Z,8.70
2019-05-19T17:42:51.552Z,8.00
2019-05-19T17:45:21.304Z,9.15
2019-05-19T17:47:53.337Z,9.30
2019-05-19T17:50:32.859Z,14.20
2019-05-19T17:53:02.750Z,11.03
2019-05-19T17:55:34.597Z,10.58
2019-05-19T17:58:04.544Z,11.27
2019-05-19T18:00:37.063Z,11.05
2019-05-19T18:03:06.845Z,15.53
2019-05-19T18:05:36.412Z,84.20
2019-05-19T18:08:06.085Z,13.75
2019-05-19T18:10:35.675Z,28.92
2019-05-19T18:13:05.255Z,17.02
2019-05-19T18:15:34.761Z,14.78
2019-05-19T18:18:04.181Z,16.97
2019-05-19T18:20:33.603Z,12.07
2019-05-19T18:23:03.092Z,17.50
2019-05-19T18:25:32.650Z,11.83
2019-05-19T18:28:02.070Z,23.47
2019-05-19T18:30:31.482Z,115.85
2019-05-19T18:33:01.018Z,53.73
2019-05-19T18:35:30.469Z,37.20
2019-05-19T18:38:00.020Z,23.77
2019-05-19T18:40:29.435Z,18.02
2019-05-19T18:42:58.947Z,16.32
2019-05-19T18:45:28.439Z,15.68
2019-05-19T18:47:57.900Z,17.83
2019-05-19T18:50:27.337Z,17.27
2019-05-19T18:52:56.796Z,16.82
2019-05-19T18:55:26.258Z,19.67
2019-05-19T18:57:55.738Z,17.15
2019-05-19T19:00:38.387Z,17.35
2019-05-19T19:03:08.245Z,20.82
2019-05-19T19:05:37.730Z,17.90
2019-05-19T19:08:07.125Z,18.73
2019-05-19T19:10:36.598Z,19.12
2019-05-19T19:13:06.057Z,22.07
2019-05-19T19:15:35.468Z,22.48
2019-05-19T19:18:04.951Z,73.45
2019-05-19T19:20:34.939Z,41.40
2019-05-19T19:23:04.440Z,23.50
2019-05-19T19:25:33.885Z,34.25
2019-05-19T19:28:03.369Z,32.88
2019-05-19T19:30:32.834Z,57.45
2019-05-19T19:33:02.297Z,53.90
2019-05-19T19:35:38.607Z,49.60
2019-05-19T19:38:02.978Z,47.90
2019-05-19T19:40:33.020Z,45.85
2019-05-19T19:43:02.946Z,43.63
2019-05-19T19:45:32.484Z,42.70
2019-05-19T19:48:02.055Z,36.05
2019-05-19T19:50:31.936Z,46.00
2019-05-19T19:53:01.429Z,36.33
2019-05-19T19:55:30.843Z,25.92
2019-05-19T19:58:00.309Z,28.38
2019-05-19T20:00:40.458Z,27.17
2019-05-19T20:03:10.190Z,20.60
2019-05-19T20:05:39.846Z,18.30
2019-05-19T20:08:09.595Z,18.37
2019-05-19T20:10:39.458Z,17.20
2019-05-19T20:13:08.917Z,20.23
2019-05-19T20:15:38.757Z,17.03
2019-05-19T20:18:08.207Z,20.65
2019-05-19T20:20:37.689Z,18.93
2019-05-19T20:23:07.132Z,15.43
2019-05-19T20:25:37.286Z,16.67
2019-05-19T20:28:07.189Z,14.78
2019-05-19T20:30:36.991Z,16.87
2019-05-19T20:33:06.652Z,18.02
2019-05-19T20:35:36.116Z,15.08
2019-05-19T20:38:05.545Z,14.28
2019-05-19T20:40:35.056Z,19.98
2019-05-19T20:43:04.541Z,16.12
2019-05-19T20:45:34.431Z,17.65
2019-05-19T20:48:03.962Z,15.25
2019-05-19T20:50:33.526Z,12.88
2019-05-19T20:53:03.015Z,13.62
2019-05-19T20:55:32.502Z,12.03
2019-05-19T20:58:01.915Z,11.37
2019-05-19T21:00:31.430Z,14.45
2019-05-19T21:03:00.922Z,14.25
2019-05-19T21:05:30.444Z,11.87
2019-05-19T21:08:00.158Z,10.72
2019-05-19T21:10:29.660Z,14.85
2019-05-19T21:12:59.053Z,14.10
2019-05-19T21:15:28.522Z,13.83
2019-05-19T21:17:57.996Z,14.00
2019-05-19T21:20:27.416Z,13.55
2019-05-19T21:22:57.349Z,13.00
2019-05-19T21:25:26.752Z,11.40
2019-05-19T21:27:56.228Z,11.63
2019-05-19T21:30:25.637Z,11.35
2019-05-19T21:32:55.113Z,13.40
2019-05-19T21:35:24.536Z,10.55
2019-05-19T21:37:53.980Z,9.63
2019-05-19T21:40:23.382Z,11.87
2019-05-19T21:42:52.834Z,14.65
2019-05-19T21:45:22.296Z,12.58
2019-05-19T21:47:51.706Z,8.23
2019-05-19T21:50:21.160Z,10.47
2019-05-19T21:52:50.584Z,9.35
2019-05-19T21:55:20.059Z,13.00
2019-05-19T21:57:49.491Z,13.55
2019-05-19T22:00:21.188Z,14.70
2019-05-19T22:02:50.695Z,10.13
2019-05-19T22:05:20.093Z,13.37
2019-05-19T22:08:08.743Z,10.78
2019-05-19T22:10:38.200Z,14.47
2019-05-19T22:13:07.647Z,13.37
2019-05-19T22:15:37.123Z,13.35
2019-05-19T22:18:06.639Z,13.05
2019-05-19T22:20:36.080Z,9.90
2019-05-19T22:23:05.510Z,10.60
2019-05-19T22:25:34.930Z,12.85
2019-05-19T22:28:04.469Z,13.13
2019-05-19T22:30:33.892Z,12.97
2019-05-19T22:33:03.343Z,10.43
2019-05-19T22:35:32.718Z,10.75
2019-05-19T22:38:02.496Z,11.25
2019-05-19T22:40:31.999Z,10.88
2019-05-19T22:43:01.411Z,11.68
2019-05-19T22:45:30.946Z,14.70
2019-05-19T22:48:00.412Z,11.57
2019-05-19T22:50:29.874Z,11.00
2019-05-19T22:52:59.408Z,11.97
2019-05-19T22:55:28.853Z,11.90
2019-05-19T22:57:58.356Z,11.97
2019-05-19T23:00:29.186Z,10.50
2019-05-19T23:02:58.676Z,12.73
2019-05-19T23:05:28.100Z,13.33
2019-05-19T23:07:58.041Z,11.55
2019-05-19T23:10:27.460Z,12.20
2019-05-19T23:12:56.883Z,14.85
2019-05-19T23:15:26.447Z,11.22
2019-05-19T23:17:55.857Z,14.47
2019-05-19T23:20:25.311Z,16.37
2019-05-19T23:22:54.983Z,11.90
2019-05-19T23:25:24.431Z,15.28
2019-05-19T23:27:53.869Z,10.03
2019-05-19T23:30:23.304Z,12.33
2019-05-19T23:32:52.981Z,10.97
2019-05-19T23:35:22.417Z,12.10
2019-05-19T23:37:51.856Z,12.33
2019-05-19T23:40:21.419Z,14.20
2019-05-19T23:42:50.870Z,13.80
2019-05-19T23:45:20.327Z,12.15
2019-05-19T23:47:49.842Z,16.67
2019-05-19T23:50:19.615Z,14.35
2019-05-19T23:52:49.076Z,12.13
2019-05-19T23:55:18.502Z,11.78
2019-05-19T23:57:48.141Z,13.83
